sensor_id;sensor_type;location;lat;lon;timestamp;P1;durP1;ratioP1;P2;durP2;ratioP2
59167;SDS011;44948;55.046;73.266;2023-01-25T00:00:50;20.50;;;8.20;;
59167;SDS011;44948;55.046;73.266;2023-01-25T00:02:32;13.82;;;6.50;;
59167;SDS011;44948;55.046;73.266;2023-01-25T00:04:14;10.75;;;5.15;;
59167;SDS011;44948;55.046;73.266;2023-01-25T00:05:59;14.10;;;6.22;;
59167;SDS011;44948;55.046;73.266;2023-01-25T00:07:41;18.88;;;8.75;;
59167;SDS011;44948;55.046;73.266;2023-01-25T00:09:24;21.00;;;6.60;;
59167;SDS011;44948;55.046;73.266;2023-01-25T00:11:06;23.92;;;9.98;;
59167;SDS011;44948;55.046;73.266;2023-01-25T00:12:47;23.02;;;8.20;;
59167;SDS011;44948;55.046;73.266;2023-01-25T00:14:29;13.93;;;4.72;;
59167;SDS011;44948;55.046;73.266;2023-01-25T00:16:11;20.13;;;6.72;;
59167;SDS011;44948;55.046;73.266;2023-01-25T00:17:53;11.38;;;5.50;;
59167;SDS011;44948;55.046;73.266;2023-01-25T00:19:37;22.27;;;7.93;;
59167;SDS011;44948;55.046;73.266;2023-01-25T00:21:20;13.60;;;6.45;;
59167;SDS011;44948;55.046;73.266;2023-01-25T00:23:02;19.23;;;7.35;;
59167;SDS011;44948;55.046;73.266;2023-01-25T00:24:44;21.98;;;8.93;;
59167;SDS011;44948;55.046;73.266;2023-01-25T00:26:26;21.70;;;10.45;;
59167;SDS011;44948;55.046;73.266;2023-01-25T00:28:10;30.25;;;11.07;;
59167;SDS011;44948;55.046;73.266;2023-01-25T00:29:52;22.73;;;8.82;;
59167;SDS011;44948;55.046;73.266;2023-01-25T00:34:57;23.45;;;9.88;;
59167;SDS011;44948;55.046;73.266;2023-01-25T00:36:40;22.00;;;8.90;;
59167;SDS011;44948;55.046;73.266;2023-01-25T00:40:10;23.65;;;9.85;;
59167;SDS011;44948;55.046;73.266;2023-01-25T00:41:53;18.23;;;8.52;;
59167;SDS011;44948;55.046;73.266;2023-01-25T00:43:34;23.33;;;9.77;;
59167;SDS011;44948;55.046;73.266;2023-01-25T00:45:16;23.92;;;10.35;;
59167;SDS011;44948;55.046;73.266;2023-01-25T00:46:58;28.63;;;12.20;;
59167;SDS011;44948;55.046;73.266;2023-01-25T00:50:23;20.85;;;7.68;;
59167;SDS011;44948;55.046;73.266;2023-01-25T00:52:05;16.33;;;8.20;;
59167;SDS011;44948;55.046;73.266;2023-01-25T00:53:46;23.38;;;8.05;;
59167;SDS011;44948;55.046;73.266;2023-01-25T00:55:28;14.20;;;6.93;;
59167;SDS011;44948;55.046;73.266;2023-01-25T00:57:10;17.35;;;7.20;;
59167;SDS011;44948;55.046;73.266;2023-01-25T00:58:52;19.77;;;9.23;;
59167;SDS011;44948;55.046;73.266;2023-01-25T01:00:34;23.48;;;8.50;;
59167;SDS011;44948;55.046;73.266;2023-01-25T01:02:16;16.23;;;7.20;;
59167;SDS011;44948;55.046;73.266;2023-01-25T01:03:58;23.95;;;9.02;;
59167;SDS011;44948;55.046;73.266;2023-01-25T01:05:39;24.35;;;10.55;;
59167;SDS011;44948;55.046;73.266;2023-01-25T01:07:21;20.80;;;9.32;;
59167;SDS011;44948;55.046;73.266;2023-01-25T01:09:04;43.72;;;13.23;;
59167;SDS011;44948;55.046;73.266;2023-01-25T01:12:28;25.10;;;9.52;;
59167;SDS011;44948;55.046;73.266;2023-01-25T01:14:10;100.55;;;28.58;;
59167;SDS011;44948;55.046;73.266;2023-01-25T01:15:52;149.95;;;41.58;;
59167;SDS011;44948;55.046;73.266;2023-01-25T01:17:34;56.28;;;21.60;;
59167;SDS011;44948;55.046;73.266;2023-01-25T01:19:16;20.70;;;8.30;;
59167;SDS011;44948;55.046;73.266;2023-01-25T01:20:58;31.67;;;12.25;;
59167;SDS011;44948;55.046;73.266;2023-01-25T01:22:39;25.55;;;10.60;;
59167;SDS011;44948;55.046;73.266;2023-01-25T01:24:21;45.38;;;16.35;;
59167;SDS011;44948;55.046;73.266;2023-01-25T01:26:04;26.20;;;10.30;;
59167;SDS011;44948;55.046;73.266;2023-01-25T01:27:47;17.63;;;7.30;;
59167;SDS011;44948;55.046;73.266;2023-01-25T01:29:29;16.40;;;7.28;;
59167;SDS011;44948;55.046;73.266;2023-01-25T01:31:14;20.85;;;7.85;;
59167;SDS011;44948;55.046;73.266;2023-01-25T01:33:01;22.45;;;8.52;;
59167;SDS011;44948;55.046;73.266;2023-01-25T01:34:43;19.73;;;8.52;;
59167;SDS011;44948;55.046;73.266;2023-01-25T01:36:27;21.48;;;9.45;;
59167;SDS011;44948;55.046;73.266;2023-01-25T01:38:09;24.55;;;9.07;;
59167;SDS011;44948;55.046;73.266;2023-01-25T01:39:51;19.73;;;9.52;;
59167;SDS011;44948;55.046;73.266;2023-01-25T01:41:33;29.23;;;10.68;;
59167;SDS011;44948;55.046;73.266;2023-01-25T01:43:16;35.45;;;13.00;;
59167;SDS011;44948;55.046;73.266;2023-01-25T01:46:39;22.23;;;8.68;;
59167;SDS011;44948;55.046;73.266;2023-01-25T01:50:19;26.92;;;10.15;;
59167;SDS011;44948;55.046;73.266;2023-01-25T01:52:15;18.25;;;7.35;;
59167;SDS011;44948;55.046;73.266;2023-01-25T01:54:06;18.67;;;7.68;;
59167;SDS011;44948;55.046;73.266;2023-01-25T01:55:50;12.98;;;5.13;;
59167;SDS011;44948;55.046;73.266;2023-01-25T01:59:17;18.23;;;6.53;;
59167;SDS011;44948;55.046;73.266;2023-01-25T02:01:00;26.27;;;9.33;;
59167;SDS011;44948;55.046;73.266;2023-01-25T02:02:42;20.77;;;9.35;;
59167;SDS011;44948;55.046;73.266;2023-01-25T02:04:24;32.13;;;11.80;;
59167;SDS011;44948;55.046;73.266;2023-01-25T02:06:09;23.88;;;9.85;;
59167;SDS011;44948;55.046;73.266;2023-01-25T02:07:53;32.60;;;11.70;;
59167;SDS011;44948;55.046;73.266;2023-01-25T02:09:36;27.52;;;10.85;;
59167;SDS011;44948;55.046;73.266;2023-01-25T02:11:21;21.13;;;8.80;;
59167;SDS011;44948;55.046;73.266;2023-01-25T02:13:03;22.42;;;8.30;;
59167;SDS011;44948;55.046;73.266;2023-01-25T02:14:47;21.73;;;10.50;;
59167;SDS011;44948;55.046;73.266;2023-01-25T02:16:32;24.55;;;9.20;;
59167;SDS011;44948;55.046;73.266;2023-01-25T02:18:17;18.02;;;7.63;;
59167;SDS011;44948;55.046;73.266;2023-01-25T02:20:07;23.05;;;8.05;;
59167;SDS011;44948;55.046;73.266;2023-01-25T02:21:50;16.20;;;6.75;;
59167;SDS011;44948;55.046;73.266;2023-01-25T02:25:17;23.58;;;8.48;;
59167;SDS011;44948;55.046;73.266;2023-01-25T02:26:59;26.42;;;9.98;;
59167;SDS011;44948;55.046;73.266;2023-01-25T02:28:44;30.67;;;9.90;;
59167;SDS011;44948;55.046;73.266;2023-01-25T02:30:28;17.10;;;7.70;;
59167;SDS011;44948;55.046;73.266;2023-01-25T02:32:12;19.38;;;6.85;;
59167;SDS011;44948;55.046;73.266;2023-01-25T02:33:54;21.52;;;10.13;;
59167;SDS011;44948;55.046;73.266;2023-01-25T02:37:17;18.52;;;8.27;;
59167;SDS011;44948;55.046;73.266;2023-01-25T02:39:00;19.98;;;8.73;;
59167;SDS011;44948;55.046;73.266;2023-01-25T02:40:44;28.75;;;8.90;;
59167;SDS011;44948;55.046;73.266;2023-01-25T02:42:30;34.13;;;12.82;;
59167;SDS011;44948;55.046;73.266;2023-01-25T02:46:02;35.95;;;13.20;;
59167;SDS011;44948;55.046;73.266;2023-01-25T02:47:46;29.60;;;11.77;;
59167;SDS011;44948;55.046;73.266;2023-01-25T02:49:29;37.92;;;13.05;;
59167;SDS011;44948;55.046;73.266;2023-01-25T02:51:11;23.50;;;8.85;;
59167;SDS011;44948;55.046;73.266;2023-01-25T02:52:55;27.48;;;10.10;;
59167;SDS011;44948;55.046;73.266;2023-01-25T02:54:37;16.33;;;6.75;;
59167;SDS011;44948;55.046;73.266;2023-01-25T02:56:21;19.50;;;8.02;;
59167;SDS011;44948;55.046;73.266;2023-01-25T02:58:03;35.72;;;13.88;;
59167;SDS011;44948;55.046;73.266;2023-01-25T02:59:44;25.45;;;9.60;;
59167;SDS011;44948;55.046;73.266;2023-01-25T03:01:28;20.48;;;6.60;;
59167;SDS011;44948;55.046;73.266;2023-01-25T03:03:10;24.45;;;9.32;;
59167;SDS011;44948;55.046;73.266;2023-01-25T03:04:52;14.95;;;6.60;;
59167;SDS011;44948;55.046;73.266;2023-01-25T03:06:34;20.63;;;7.68;;
59167;SDS011;44948;55.046;73.266;2023-01-25T03:08:16;17.60;;;7.30;;
59167;SDS011;44948;55.046;73.266;2023-01-25T03:09:58;14.50;;;6.80;;
59167;SDS011;44948;55.046;73.266;2023-01-25T03:11:40;28.25;;;9.82;;
59167;SDS011;44948;55.046;73.266;2023-01-25T03:13:22;16.27;;;6.72;;
59167;SDS011;44948;55.046;73.266;2023-01-25T03:15:04;15.75;;;7.18;;
59167;SDS011;44948;55.046;73.266;2023-01-25T03:16:47;27.08;;;10.57;;
59167;SDS011;44948;55.046;73.266;2023-01-25T03:18:30;18.77;;;7.95;;
59167;SDS011;44948;55.046;73.266;2023-01-25T03:20:12;11.98;;;5.15;;
59167;SDS011;44948;55.046;73.266;2023-01-25T03:21:55;13.52;;;5.82;;
59167;SDS011;44948;55.046;73.266;2023-01-25T03:23:39;18.98;;;6.57;;
59167;SDS011;44948;55.046;73.266;2023-01-25T03:25:25;23.40;;;9.55;;
59167;SDS011;44948;55.046;73.266;2023-01-25T03:27:14;22.45;;;9.57;;
59167;SDS011;44948;55.046;73.266;2023-01-25T03:29:15;29.25;;;11.95;;
59167;SDS011;44948;55.046;73.266;2023-01-25T03:30:58;24.15;;;10.25;;
59167;SDS011;44948;55.046;73.266;2023-01-25T03:32:43;28.58;;;11.43;;
59167;SDS011;44948;55.046;73.266;2023-01-25T03:34:29;36.33;;;15.85;;
59167;SDS011;44948;55.046;73.266;2023-01-25T03:36:12;27.42;;;11.05;;
59167;SDS011;44948;55.046;73.266;2023-01-25T03:37:54;23.27;;;9.68;;
59167;SDS011;44948;55.046;73.266;2023-01-25T03:39:37;28.37;;;11.83;;
59167;SDS011;44948;55.046;73.266;2023-01-25T03:41:19;14.80;;;7.28;;
59167;SDS011;44948;55.046;73.266;2023-01-25T03:43:01;25.20;;;11.50;;
59167;SDS011;44948;55.046;73.266;2023-01-25T03:44:43;28.88;;;11.75;;
59167;SDS011;44948;55.046;73.266;2023-01-25T03:46:25;11.02;;;5.43;;
59167;SDS011;44948;55.046;73.266;2023-01-25T03:48:09;20.80;;;8.13;;
59167;SDS011;44948;55.046;73.266;2023-01-25T03:49:52;19.95;;;8.88;;
59167;SDS011;44948;55.046;73.266;2023-01-25T03:51:34;22.25;;;10.10;;
59167;SDS011;44948;55.046;73.266;2023-01-25T03:53:17;13.32;;;6.15;;
59167;SDS011;44948;55.046;73.266;2023-01-25T03:56:55;15.95;;;6.72;;
59167;SDS011;44948;55.046;73.266;2023-01-25T03:58:40;19.25;;;8.05;;
59167;SDS011;44948;55.046;73.266;2023-01-25T04:00:23;21.63;;;7.18;;
59167;SDS011;44948;55.046;73.266;2023-01-25T04:02:13;25.48;;;10.43;;
59167;SDS011;44948;55.046;73.266;2023-01-25T04:03:55;33.15;;;13.75;;
59167;SDS011;44948;55.046;73.266;2023-01-25T04:05:37;41.15;;;15.82;;
59167;SDS011;44948;55.046;73.266;2023-01-25T04:07:19;42.63;;;16.23;;
59167;SDS011;44948;55.046;73.266;2023-01-25T04:09:01;50.38;;;19.73;;
59167;SDS011;44948;55.046;73.266;2023-01-25T04:10:53;34.05;;;13.48;;
59167;SDS011;44948;55.046;73.266;2023-01-25T04:12:37;65.13;;;21.92;;
59167;SDS011;44948;55.046;73.266;2023-01-25T04:14:20;64.10;;;21.95;;
59167;SDS011;44948;55.046;73.266;2023-01-25T04:16:11;35.50;;;13.23;;
59167;SDS011;44948;55.046;73.266;2023-01-25T04:18:16;18.58;;;8.40;;
59167;SDS011;44948;55.046;73.266;2023-01-25T04:19:58;29.92;;;10.68;;
59167;SDS011;44948;55.046;73.266;2023-01-25T04:21:46;50.35;;;17.13;;
59167;SDS011;44948;55.046;73.266;2023-01-25T04:23:27;28.77;;;11.55;;
59167;SDS011;44948;55.046;73.266;2023-01-25T04:25:10;50.97;;;19.33;;
59167;SDS011;44948;55.046;73.266;2023-01-25T04:26:58;44.53;;;18.42;;
59167;SDS011;44948;55.046;73.266;2023-01-25T04:28:42;25.05;;;10.45;;
59167;SDS011;44948;55.046;73.266;2023-01-25T04:30:24;26.35;;;10.35;;
59167;SDS011;44948;55.046;73.266;2023-01-25T04:32:06;27.08;;;9.40;;
59167;SDS011;44948;55.046;73.266;2023-01-25T04:33:49;25.58;;;9.13;;
59167;SDS011;44948;55.046;73.266;2023-01-25T04:35:33;19.00;;;7.63;;
59167;SDS011;44948;55.046;73.266;2023-01-25T04:37:16;29.63;;;11.43;;
59167;SDS011;44948;55.046;73.266;2023-01-25T04:39:11;27.08;;;9.98;;
59167;SDS011;44948;55.046;73.266;2023-01-25T04:40:53;40.42;;;14.20;;
59167;SDS011;44948;55.046;73.266;2023-01-25T04:42:35;40.80;;;16.63;;
59167;SDS011;44948;55.046;73.266;2023-01-25T04:44:17;24.15;;;9.45;;
59167;SDS011;44948;55.046;73.266;2023-01-25T04:46:00;32.28;;;11.15;;
59167;SDS011;44948;55.046;73.266;2023-01-25T04:47:45;46.10;;;17.17;;
59167;SDS011;44948;55.046;73.266;2023-01-25T04:49:27;45.50;;;16.63;;
59167;SDS011;44948;55.046;73.266;2023-01-25T04:51:09;38.25;;;13.70;;
59167;SDS011;44948;55.046;73.266;2023-01-25T04:52:52;33.85;;;12.70;;
59167;SDS011;44948;55.046;73.266;2023-01-25T04:54:34;39.38;;;15.60;;
59167;SDS011;44948;55.046;73.266;2023-01-25T04:56:17;35.83;;;14.60;;
59167;SDS011;44948;55.046;73.266;2023-01-25T04:58:04;33.13;;;13.77;;
59167;SDS011;44948;55.046;73.266;2023-01-25T04:59:47;26.55;;;9.95;;
59167;SDS011;44948;55.046;73.266;2023-01-25T05:01:30;24.05;;;9.55;;
59167;SDS011;44948;55.046;73.266;2023-01-25T05:03:15;28.98;;;11.55;;
59167;SDS011;44948;55.046;73.266;2023-01-25T05:04:58;37.25;;;13.95;;
59167;SDS011;44948;55.046;73.266;2023-01-25T05:06:40;35.78;;;12.55;;
59167;SDS011;44948;55.046;73.266;2023-01-25T05:08:22;28.25;;;11.57;;
59167;SDS011;44948;55.046;73.266;2023-01-25T05:10:06;24.50;;;10.52;;
59167;SDS011;44948;55.046;73.266;2023-01-25T05:11:54;22.10;;;10.13;;
59167;SDS011;44948;55.046;73.266;2023-01-25T05:13:45;15.40;;;7.63;;
59167;SDS011;44948;55.046;73.266;2023-01-25T05:15:35;27.45;;;12.13;;
59167;SDS011;44948;55.046;73.266;2023-01-25T05:17:17;17.33;;;6.97;;
59167;SDS011;44948;55.046;73.266;2023-01-25T05:18:59;20.77;;;9.35;;
59167;SDS011;44948;55.046;73.266;2023-01-25T05:20:57;19.13;;;7.88;;
59167;SDS011;44948;55.046;73.266;2023-01-25T05:22:40;34.20;;;12.70;;
59167;SDS011;44948;55.046;73.266;2023-01-25T05:24:23;24.90;;;11.38;;
59167;SDS011;44948;55.046;73.266;2023-01-25T05:26:05;20.17;;;8.10;;
59167;SDS011;44948;55.046;73.266;2023-01-25T05:28:05;30.33;;;10.88;;
59167;SDS011;44948;55.046;73.266;2023-01-25T05:30:11;22.80;;;9.70;;
59167;SDS011;44948;55.046;73.266;2023-01-25T05:32:08;19.25;;;8.20;;
59167;SDS011;44948;55.046;73.266;2023-01-25T05:33:52;12.05;;;5.72;;
59167;SDS011;44948;55.046;73.266;2023-01-25T05:35:35;19.65;;;8.55;;
59167;SDS011;44948;55.046;73.266;2023-01-25T05:37:19;20.15;;;10.25;;
59167;SDS011;44948;55.046;73.266;2023-01-25T05:39:06;45.47;;;21.88;;
59167;SDS011;44948;55.046;73.266;2023-01-25T05:40:49;30.25;;;13.13;;
59167;SDS011;44948;55.046;73.266;2023-01-25T05:42:33;39.67;;;13.75;;
59167;SDS011;44948;55.046;73.266;2023-01-25T05:44:16;19.95;;;8.82;;
59167;SDS011;44948;55.046;73.266;2023-01-25T05:46:01;22.33;;;9.73;;
59167;SDS011;44948;55.046;73.266;2023-01-25T05:47:43;29.48;;;11.73;;
59167;SDS011;44948;55.046;73.266;2023-01-25T05:49:25;23.65;;;10.38;;
59167;SDS011;44948;55.046;73.266;2023-01-25T05:51:07;26.20;;;8.93;;
59167;SDS011;44948;55.046;73.266;2023-01-25T05:52:49;18.27;;;6.95;;
59167;SDS011;44948;55.046;73.266;2023-01-25T05:54:31;18.80;;;7.60;;
59167;SDS011;44948;55.046;73.266;2023-01-25T05:56:18;23.80;;;9.60;;
59167;SDS011;44948;55.046;73.266;2023-01-25T05:57:59;15.32;;;7.57;;
59167;SDS011;44948;55.046;73.266;2023-01-25T05:59:42;15.15;;;6.65;;
59167;SDS011;44948;55.046;73.266;2023-01-25T06:01:27;16.20;;;6.60;;
59167;SDS011;44948;55.046;73.266;2023-01-25T06:03:12;14.85;;;6.47;;
59167;SDS011;44948;55.046;73.266;2023-01-25T06:04:54;19.02;;;7.18;;
59167;SDS011;44948;55.046;73.266;2023-01-25T06:06:37;53.40;;;14.07;;
59167;SDS011;44948;55.046;73.266;2023-01-25T06:08:18;50.70;;;16.55;;
59167;SDS011;44948;55.046;73.266;2023-01-25T06:10:04;17.45;;;7.03;;
59167;SDS011;44948;55.046;73.266;2023-01-25T06:11:46;14.20;;;6.35;;
59167;SDS011;44948;55.046;73.266;2023-01-25T06:13:28;16.50;;;6.28;;
59167;SDS011;44948;55.046;73.266;2023-01-25T06:15:10;18.90;;;7.70;;
59167;SDS011;44948;55.046;73.266;2023-01-25T06:16:52;19.55;;;7.93;;
59167;SDS011;44948;55.046;73.266;2023-01-25T06:18:51;16.88;;;6.10;;
59167;SDS011;44948;55.046;73.266;2023-01-25T06:20:55;14.55;;;5.93;;
59167;SDS011;44948;55.046;73.266;2023-01-25T06:22:52;17.50;;;5.97;;
59167;SDS011;44948;55.046;73.266;2023-01-25T06:24:34;16.80;;;5.72;;
59167;SDS011;44948;55.046;73.266;2023-01-25T06:26:16;12.30;;;4.72;;
59167;SDS011;44948;55.046;73.266;2023-01-25T06:27:58;15.65;;;7.10;;
59167;SDS011;44948;55.046;73.266;2023-01-25T06:29:40;18.67;;;7.30;;
59167;SDS011;44948;55.046;73.266;2023-01-25T06:31:22;18.77;;;6.25;;
59167;SDS011;44948;55.046;73.266;2023-01-25T06:33:04;13.13;;;6.43;;
59167;SDS011;44948;55.046;73.266;2023-01-25T06:34:46;12.60;;;5.65;;
59167;SDS011;44948;55.046;73.266;2023-01-25T06:36:34;16.27;;;6.20;;
59167;SDS011;44948;55.046;73.266;2023-01-25T06:38:16;18.45;;;7.45;;
59167;SDS011;44948;55.046;73.266;2023-01-25T06:39:58;19.05;;;7.60;;
59167;SDS011;44948;55.046;73.266;2023-01-25T06:41:40;18.33;;;7.43;;
59167;SDS011;44948;55.046;73.266;2023-01-25T06:43:24;18.50;;;8.07;;
59167;SDS011;44948;55.046;73.266;2023-01-25T06:45:06;15.05;;;6.30;;
59167;SDS011;44948;55.046;73.266;2023-01-25T06:46:48;32.17;;;10.82;;
59167;SDS011;44948;55.046;73.266;2023-01-25T06:48:30;28.20;;;11.32;;
59167;SDS011;44948;55.046;73.266;2023-01-25T06:50:12;41.90;;;12.85;;
59167;SDS011;44948;55.046;73.266;2023-01-25T06:51:54;25.25;;;8.65;;
59167;SDS011;44948;55.046;73.266;2023-01-25T06:53:37;25.50;;;9.45;;
59167;SDS011;44948;55.046;73.266;2023-01-25T06:57:01;30.33;;;12.43;;
59167;SDS011;44948;55.046;73.266;2023-01-25T06:58:44;54.53;;;18.80;;
59167;SDS011;44948;55.046;73.266;2023-01-25T07:00:26;44.10;;;16.08;;
59167;SDS011;44948;55.046;73.266;2023-01-25T07:02:10;38.88;;;15.25;;
59167;SDS011;44948;55.046;73.266;2023-01-25T07:03:55;39.75;;;15.45;;
59167;SDS011;44948;55.046;73.266;2023-01-25T07:05:37;35.40;;;11.68;;
59167;SDS011;44948;55.046;73.266;2023-01-25T07:07:19;25.20;;;9.90;;
59167;SDS011;44948;55.046;73.266;2023-01-25T07:09:04;37.25;;;15.02;;
59167;SDS011;44948;55.046;73.266;2023-01-25T07:10:51;25.75;;;11.70;;
59167;SDS011;44948;55.046;73.266;2023-01-25T07:12:33;33.33;;;12.35;;
59167;SDS011;44948;55.046;73.266;2023-01-25T07:14:16;32.47;;;14.38;;
59167;SDS011;44948;55.046;73.266;2023-01-25T07:16:02;23.13;;;9.73;;
59167;SDS011;44948;55.046;73.266;2023-01-25T07:17:44;15.68;;;7.05;;
59167;SDS011;44948;55.046;73.266;2023-01-25T07:19:26;16.35;;;6.70;;
59167;SDS011;44948;55.046;73.266;2023-01-25T07:21:09;28.08;;;9.57;;
59167;SDS011;44948;55.046;73.266;2023-01-25T07:24:32;25.15;;;8.60;;
59167;SDS011;44948;55.046;73.266;2023-01-25T07:27:57;43.78;;;14.90;;
59167;SDS011;44948;55.046;73.266;2023-01-25T07:29:38;8.25;;;4.43;;
59167;SDS011;44948;55.046;73.266;2023-01-25T07:31:22;19.77;;;6.80;;
59167;SDS011;44948;55.046;73.266;2023-01-25T07:33:04;24.47;;;8.97;;
59167;SDS011;44948;55.046;73.266;2023-01-25T07:34:45;39.65;;;15.00;;
59167;SDS011;44948;55.046;73.266;2023-01-25T07:36:27;25.85;;;9.65;;
59167;SDS011;44948;55.046;73.266;2023-01-25T07:38:09;19.63;;;8.25;;
59167;SDS011;44948;55.046;73.266;2023-01-25T07:39:51;13.05;;;5.40;;
59167;SDS011;44948;55.046;73.266;2023-01-25T07:41:33;12.82;;;6.20;;
59167;SDS011;44948;55.046;73.266;2023-01-25T07:43:16;13.57;;;6.63;;
59167;SDS011;44948;55.046;73.266;2023-01-25T07:44:57;34.75;;;12.45;;
59167;SDS011;44948;55.046;73.266;2023-01-25T07:46:40;36.70;;;14.43;;
59167;SDS011;44948;55.046;73.266;2023-01-25T07:48:22;29.92;;;10.80;;
59167;SDS011;44948;55.046;73.266;2023-01-25T07:50:04;22.08;;;8.75;;
59167;SDS011;44948;55.046;73.266;2023-01-25T07:51:46;18.73;;;9.13;;
59167;SDS011;44948;55.046;73.266;2023-01-25T07:53:27;21.15;;;8.38;;
59167;SDS011;44948;55.046;73.266;2023-01-25T07:55:09;23.77;;;9.90;;
59167;SDS011;44948;55.046;73.266;2023-01-25T07:56:51;19.63;;;7.80;;
59167;SDS011;44948;55.046;73.266;2023-01-25T07:58:33;19.48;;;7.80;;
59167;SDS011;44948;55.046;73.266;2023-01-25T08:00:15;17.33;;;6.50;;
59167;SDS011;44948;55.046;73.266;2023-01-25T08:01:57;26.35;;;11.35;;
59167;SDS011;44948;55.046;73.266;2023-01-25T08:03:39;46.03;;;14.60;;
59167;SDS011;44948;55.046;73.266;2023-01-25T08:05:21;34.53;;;13.73;;
59167;SDS011;44948;55.046;73.266;2023-01-25T08:07:03;108.53;;;29.67;;
59167;SDS011;44948;55.046;73.266;2023-01-25T08:08:45;73.22;;;23.17;;
59167;SDS011;44948;55.046;73.266;2023-01-25T08:10:28;60.05;;;18.92;;
59167;SDS011;44948;55.046;73.266;2023-01-25T08:12:12;53.85;;;15.27;;
59167;SDS011;44948;55.046;73.266;2023-01-25T08:13:54;28.70;;;10.18;;
59167;SDS011;44948;55.046;73.266;2023-01-25T08:15:38;32.38;;;11.80;;
59167;SDS011;44948;55.046;73.266;2023-01-25T08:17:20;22.30;;;8.80;;
59167;SDS011;44948;55.046;73.266;2023-01-25T08:19:02;43.78;;;12.35;;
59167;SDS011;44948;55.046;73.266;2023-01-25T08:20:44;15.88;;;5.85;;
59167;SDS011;44948;55.046;73.266;2023-01-25T08:22:26;18.88;;;8.15;;
59167;SDS011;44948;55.046;73.266;2023-01-25T08:24:08;19.38;;;7.45;;
59167;SDS011;44948;55.046;73.266;2023-01-25T08:25:50;27.98;;;9.07;;
59167;SDS011;44948;55.046;73.266;2023-01-25T08:27:32;18.13;;;6.80;;
59167;SDS011;44948;55.046;73.266;2023-01-25T08:29:14;43.38;;;16.35;;
59167;SDS011;44948;55.046;73.266;2023-01-25T08:34:31;48.03;;;12.30;;
59167;SDS011;44948;55.046;73.266;2023-01-25T08:36:13;51.20;;;15.57;;
59167;SDS011;44948;55.046;73.266;2023-01-25T08:37:56;28.98;;;10.27;;
59167;SDS011;44948;55.046;73.266;2023-01-25T08:39:38;28.13;;;9.95;;
59167;SDS011;44948;55.046;73.266;2023-01-25T08:41:19;24.92;;;8.98;;
59167;SDS011;44948;55.046;73.266;2023-01-25T08:43:01;19.13;;;6.97;;
59167;SDS011;44948;55.046;73.266;2023-01-25T08:44:43;14.60;;;6.22;;
59167;SDS011;44948;55.046;73.266;2023-01-25T08:46:26;27.10;;;10.27;;
59167;SDS011;44948;55.046;73.266;2023-01-25T08:48:08;22.15;;;8.88;;
59167;SDS011;44948;55.046;73.266;2023-01-25T08:49:53;17.08;;;6.60;;
59167;SDS011;44948;55.046;73.266;2023-01-25T08:51:35;21.38;;;7.25;;
59167;SDS011;44948;55.046;73.266;2023-01-25T08:53:18;15.95;;;6.63;;
59167;SDS011;44948;55.046;73.266;2023-01-25T08:55:00;9.43;;;5.05;;
59167;SDS011;44948;55.046;73.266;2023-01-25T08:56:41;11.65;;;4.80;;
59167;SDS011;44948;55.046;73.266;2023-01-25T08:58:23;21.33;;;6.82;;
59167;SDS011;44948;55.046;73.266;2023-01-25T09:00:05;29.17;;;9.68;;
59167;SDS011;44948;55.046;73.266;2023-01-25T09:01:47;25.00;;;8.77;;
59167;SDS011;44948;55.046;73.266;2023-01-25T09:03:29;14.77;;;5.15;;
59167;SDS011;44948;55.046;73.266;2023-01-25T09:05:11;16.63;;;6.63;;
59167;SDS011;44948;55.046;73.266;2023-01-25T09:06:53;23.70;;;8.88;;
59167;SDS011;44948;55.046;73.266;2023-01-25T09:08:36;26.92;;;9.05;;
59167;SDS011;44948;55.046;73.266;2023-01-25T09:10:18;25.40;;;10.52;;
59167;SDS011;44948;55.046;73.266;2023-01-25T09:12:00;26.23;;;10.32;;
59167;SDS011;44948;55.046;73.266;2023-01-25T09:13:42;20.85;;;7.88;;
59167;SDS011;44948;55.046;73.266;2023-01-25T09:15:25;29.50;;;10.17;;
59167;SDS011;44948;55.046;73.266;2023-01-25T09:17:08;24.98;;;9.73;;
59167;SDS011;44948;55.046;73.266;2023-01-25T09:18:49;19.95;;;8.10;;
59167;SDS011;44948;55.046;73.266;2023-01-25T09:20:31;31.65;;;11.02;;
59167;SDS011;44948;55.046;73.266;2023-01-25T09:22:13;25.33;;;11.05;;
59167;SDS011;44948;55.046;73.266;2023-01-25T09:23:55;12.45;;;6.10;;
59167;SDS011;44948;55.046;73.266;2023-01-25T09:25:37;16.65;;;6.90;;
59167;SDS011;44948;55.046;73.266;2023-01-25T09:27:19;24.40;;;8.32;;
59167;SDS011;44948;55.046;73.266;2023-01-25T09:29:00;23.25;;;7.80;;
59167;SDS011;44948;55.046;73.266;2023-01-25T09:30:42;23.83;;;7.32;;
59167;SDS011;44948;55.046;73.266;2023-01-25T09:32:33;30.90;;;9.60;;
59167;SDS011;44948;55.046;73.266;2023-01-25T09:34:15;26.65;;;10.60;;
59167;SDS011;44948;55.046;73.266;2023-01-25T09:35:56;23.73;;;6.78;;
59167;SDS011;44948;55.046;73.266;2023-01-25T09:37:38;20.40;;;7.70;;
59167;SDS011;44948;55.046;73.266;2023-01-25T09:39:22;17.45;;;6.50;;
59167;SDS011;44948;55.046;73.266;2023-01-25T09:43:12;19.77;;;8.15;;
59167;SDS011;44948;55.046;73.266;2023-01-25T09:46:57;13.00;;;5.57;;
59167;SDS011;44948;55.046;73.266;2023-01-25T09:48:41;19.05;;;7.97;;
59167;SDS011;44948;55.046;73.266;2023-01-25T09:50:39;16.33;;;5.38;;
59167;SDS011;44948;55.046;73.266;2023-01-25T09:54:06;14.25;;;5.50;;
59167;SDS011;44948;55.046;73.266;2023-01-25T09:55:54;19.35;;;6.40;;
59167;SDS011;44948;55.046;73.266;2023-01-25T09:57:39;15.70;;;5.47;;
59167;SDS011;44948;55.046;73.266;2023-01-25T09:59:22;16.48;;;6.50;;
59167;SDS011;44948;55.046;73.266;2023-01-25T10:03:07;16.27;;;6.28;;
59167;SDS011;44948;55.046;73.266;2023-01-25T10:04:52;15.95;;;7.00;;
59167;SDS011;44948;55.046;73.266;2023-01-25T10:06:37;16.65;;;7.10;;
59167;SDS011;44948;55.046;73.266;2023-01-25T10:08:25;14.13;;;4.82;;
59167;SDS011;44948;55.046;73.266;2023-01-25T10:10:13;12.15;;;4.00;;
59167;SDS011;44948;55.046;73.266;2023-01-25T10:12:02;11.23;;;3.83;;
59167;SDS011;44948;55.046;73.266;2023-01-25T10:13:45;11.27;;;4.85;;
59167;SDS011;44948;55.046;73.266;2023-01-25T10:15:32;10.23;;;4.38;;
59167;SDS011;44948;55.046;73.266;2023-01-25T10:19:23;14.25;;;5.25;;
59167;SDS011;44948;55.046;73.266;2023-01-25T10:21:16;16.67;;;5.55;;
59167;SDS011;44948;55.046;73.266;2023-01-25T10:26:42;17.52;;;5.75;;
59167;SDS011;44948;55.046;73.266;2023-01-25T10:30:15;25.45;;;8.88;;
59167;SDS011;44948;55.046;73.266;2023-01-25T10:32:08;16.92;;;7.07;;
59167;SDS011;44948;55.046;73.266;2023-01-25T10:33:52;31.63;;;12.68;;
59167;SDS011;44948;55.046;73.266;2023-01-25T10:35:36;17.50;;;6.60;;
59167;SDS011;44948;55.046;73.266;2023-01-25T10:37:19;28.23;;;8.05;;
59167;SDS011;44948;55.046;73.266;2023-01-25T10:40:53;42.92;;;14.18;;
59167;SDS011;44948;55.046;73.266;2023-01-25T10:42:37;63.53;;;17.63;;
59167;SDS011;44948;55.046;73.266;2023-01-25T10:44:20;42.42;;;12.85;;
59167;SDS011;44948;55.046;73.266;2023-01-25T10:46:02;20.42;;;7.47;;
59167;SDS011;44948;55.046;73.266;2023-01-25T10:47:51;56.80;;;16.65;;
59167;SDS011;44948;55.046;73.266;2023-01-25T10:51:32;35.33;;;9.50;;